sensor_id;sensor_type;location;lat;lon;timestamp;P1;durP1;ratioP1;P2;durP2;ratioP2
79751;SDS011;69234;47.446;21.636;2024-03-23T00:51:51;37.57;;;36.43;;
79751;SDS011;69234;47.446;21.636;2024-03-23T00:53:59;34.37;;;33.20;;
79751;SDS011;69234;47.446;21.636;2024-03-23T00:54:29;35.97;;;34.93;;
79751;SDS011;69234;47.446;21.636;2024-03-23T00:55:00;36.70;;;35.53;;
79751;SDS011;69234;47.446;21.636;2024-03-23T00:55:31;35.23;;;34.37;;
79751;SDS011;69234;47.446;21.636;2024-03-23T00:56:02;36.63;;;35.43;;
79751;SDS011;69234;47.446;21.636;2024-03-23T00:56:34;36.07;;;35.13;;
79751;SDS011;69234;47.446;21.636;2024-03-23T00:57:05;35.23;;;34.63;;
79751;SDS011;69234;47.446;21.636;2024-03-23T00:57:35;35.30;;;34.30;;
79751;SDS011;69234;47.446;21.636;2024-03-23T00:58:06;36.07;;;34.83;;
79751;SDS011;69234;47.446;21.636;2024-03-23T00:58:38;38.10;;;36.73;;
79751;SDS011;69234;47.446;21.636;2024-03-23T00:59:09;37.57;;;36.33;;
79751;SDS011;69234;47.446;21.636;2024-03-23T00:59:40;38.13;;;36.87;;
79751;SDS011;69234;47.446;21.636;2024-03-23T01:00:11;38.77;;;37.43;;
79751;SDS011;69234;47.446;21.636;2024-03-23T01:00:42;37.90;;;36.90;;
79751;SDS011;69234;47.446;21.636;2024-03-23T01:01:13;37.77;;;36.80;;
79751;SDS011;69234;47.446;21.636;2024-03-23T01:01:44;38.27;;;37.50;;
79751;SDS011;69234;47.446;21.636;2024-03-23T01:02:15;37.33;;;36.47;;
79751;SDS011;69234;47.446;21.636;2024-03-23T01:02:46;37.63;;;36.77;;
79751;SDS011;69234;47.446;21.636;2024-03-23T01:03:17;38.70;;;37.73;;
79751;SDS011;69234;47.446;21.636;2024-03-23T01:03:48;37.33;;;36.40;;
79751;SDS011;69234;47.446;21.636;2024-03-23T01:04:19;35.30;;;34.57;;
79751;SDS011;69234;47.446;21.636;2024-03-23T01:04:50;34.30;;;33.70;;
79751;SDS011;69234;47.446;21.636;2024-03-23T01:05:21;34.77;;;34.07;;
79751;SDS011;69234;47.446;21.636;2024-03-23T01:05:52;37.00;;;36.13;;
79751;SDS011;69234;47.446;21.636;2024-03-23T01:06:24;39.63;;;38.67;;
79751;SDS011;69234;47.446;21.636;2024-03-23T01:06:55;37.80;;;36.83;;
79751;SDS011;69234;47.446;21.636;2024-03-23T01:07:26;38.70;;;37.60;;
79751;SDS011;69234;47.446;21.636;2024-03-23T01:07:57;39.43;;;38.20;;
79751;SDS011;69234;47.446;21.636;2024-03-23T01:08:27;42.03;;;41.07;;
79751;SDS011;69234;47.446;21.636;2024-03-23T01:08:58;49.07;;;47.83;;
79751;SDS011;69234;47.446;21.636;2024-03-23T01:09:29;48.03;;;46.40;;
79751;SDS011;69234;47.446;21.636;2024-03-23T01:10:00;45.07;;;43.50;;
79751;SDS011;69234;47.446;21.636;2024-03-23T01:10:31;43.47;;;41.83;;
79751;SDS011;69234;47.446;21.636;2024-03-23T01:11:03;40.03;;;38.67;;
79751;SDS011;69234;47.446;21.636;2024-03-23T01:11:34;38.43;;;37.23;;
79751;SDS011;69234;47.446;21.636;2024-03-23T01:12:05;40.63;;;39.33;;
79751;SDS011;69234;47.446;21.636;2024-03-23T01:12:36;39.40;;;38.10;;
79751;SDS011;69234;47.446;21.636;2024-03-23T01:13:07;35.23;;;34.20;;
79751;SDS011;69234;47.446;21.636;2024-03-23T01:13:38;34.20;;;33.10;;
79751;SDS011;69234;47.446;21.636;2024-03-23T01:14:09;39.83;;;38.37;;
79751;SDS011;69234;47.446;21.636;2024-03-23T01:14:40;52.60;;;50.27;;
79751;SDS011;69234;47.446;21.636;2024-03-23T01:15:10;53.23;;;50.73;;
79751;SDS011;69234;47.446;21.636;2024-03-23T01:15:47;51.00;;;48.90;;
79751;SDS011;69234;47.446;21.636;2024-03-23T01:16:22;57.20;;;54.87;;
79751;SDS011;69234;47.446;21.636;2024-03-23T01:16:52;87.60;;;84.33;;
79751;SDS011;69234;47.446;21.636;2024-03-23T01:17:23;87.27;;;84.50;;
79751;SDS011;69234;47.446;21.636;2024-03-23T01:17:54;54.40;;;52.73;;
79751;SDS011;69234;47.446;21.636;2024-03-23T01:18:25;47.00;;;45.60;;
79751;SDS011;69234;47.446;21.636;2024-03-23T01:18:56;45.50;;;43.93;;
79751;SDS011;69234;47.446;21.636;2024-03-23T01:19:27;43.37;;;41.97;;
79751;SDS011;69234;47.446;21.636;2024-03-23T01:19:58;42.17;;;41.00;;
79751;SDS011;69234;47.446;21.636;2024-03-23T01:20:29;39.50;;;38.37;;
79751;SDS011;69234;47.446;21.636;2024-03-23T01:21:00;41.70;;;40.07;;
79751;SDS011;69234;47.446;21.636;2024-03-23T01:21:31;42.97;;;41.47;;
79751;SDS011;69234;47.446;21.636;2024-03-23T01:22:02;44.10;;;42.80;;
79751;SDS011;69234;47.446;21.636;2024-03-23T01:22:32;43.47;;;42.17;;
79751;SDS011;69234;47.446;21.636;2024-03-23T01:23:03;39.67;;;38.57;;
79751;SDS011;69234;47.446;21.636;2024-03-23T01:23:34;38.30;;;37.17;;
79751;SDS011;69234;47.446;21.636;2024-03-23T01:24:05;36.47;;;35.30;;
79751;SDS011;69234;47.446;21.636;2024-03-23T01:24:36;35.33;;;34.20;;
79751;SDS011;69234;47.446;21.636;2024-03-23T01:25:07;35.00;;;34.13;;
79751;SDS011;69234;47.446;21.636;2024-03-23T01:25:38;36.50;;;35.60;;
79751;SDS011;69234;47.446;21.636;2024-03-23T01:26:09;34.13;;;33.17;;
79751;SDS011;69234;47.446;21.636;2024-03-23T01:26:40;32.93;;;32.00;;
79751;SDS011;69234;47.446;21.636;2024-03-23T01:27:12;34.40;;;33.33;;
79751;SDS011;69234;47.446;21.636;2024-03-23T01:27:43;34.33;;;33.27;;
79751;SDS011;69234;47.446;21.636;2024-03-23T01:28:13;35.03;;;34.03;;
79751;SDS011;69234;47.446;21.636;2024-03-23T01:28:44;34.50;;;33.47;;
79751;SDS011;69234;47.446;21.636;2024-03-23T01:29:15;35.83;;;34.77;;
79751;SDS011;69234;47.446;21.636;2024-03-23T01:29:46;36.33;;;35.37;;
79751;SDS011;69234;47.446;21.636;2024-03-23T01:30:17;37.53;;;36.37;;
79751;SDS011;69234;47.446;21.636;2024-03-23T01:30:48;35.83;;;34.57;;
79751;SDS011;69234;47.446;21.636;2024-03-23T01:31:19;35.63;;;34.27;;
79751;SDS011;69234;47.446;21.636;2024-03-23T01:31:50;35.00;;;33.90;;
79751;SDS011;69234;47.446;21.636;2024-03-23T01:32:21;34.63;;;33.83;;
79751;SDS011;69234;47.446;21.636;2024-03-23T01:32:52;36.27;;;35.13;;
79751;SDS011;69234;47.446;21.636;2024-03-23T01:33:23;36.53;;;35.43;;
79751;SDS011;69234;47.446;21.636;2024-03-23T01:33:54;38.83;;;37.60;;
79751;SDS011;69234;47.446;21.636;2024-03-23T01:34:25;39.30;;;38.03;;
79751;SDS011;69234;47.446;21.636;2024-03-23T01:34:58;37.67;;;36.37;;
79751;SDS011;69234;47.446;21.636;2024-03-23T01:35:29;41.37;;;39.83;;
79751;SDS011;69234;47.446;21.636;2024-03-23T01:36:00;39.37;;;38.10;;
79751;SDS011;69234;47.446;21.636;2024-03-23T01:36:31;38.77;;;37.27;;
79751;SDS011;69234;47.446;21.636;2024-03-23T01:37:01;39.27;;;37.47;;
79751;SDS011;69234;47.446;21.636;2024-03-23T01:37:32;40.20;;;38.33;;
79751;SDS011;69234;47.446;21.636;2024-03-23T01:38:03;41.13;;;39.33;;
79751;SDS011;69234;47.446;21.636;2024-03-23T01:38:35;38.67;;;37.10;;
79751;SDS011;69234;47.446;21.636;2024-03-23T01:39:06;39.43;;;38.03;;
79751;SDS011;69234;47.446;21.636;2024-03-23T01:39:39;46.07;;;44.50;;
79751;SDS011;69234;47.446;21.636;2024-03-23T01:40:10;46.90;;;45.57;;
79751;SDS011;69234;47.446;21.636;2024-03-23T01:40:43;48.30;;;47.10;;
79751;SDS011;69234;47.446;21.636;2024-03-23T01:41:14;62.07;;;59.83;;
79751;SDS011;69234;47.446;21.636;2024-03-23T01:41:45;71.33;;;68.10;;
79751;SDS011;69234;47.446;21.636;2024-03-23T01:42:16;68.67;;;65.50;;
79751;SDS011;69234;47.446;21.636;2024-03-23T01:43:03;53.40;;;51.20;;
79751;SDS011;69234;47.446;21.636;2024-03-23T01:43:38;51.70;;;49.47;;
79751;SDS011;69234;47.446;21.636;2024-03-23T01:44:09;54.00;;;51.87;;
79751;SDS011;69234;47.446;21.636;2024-03-23T01:44:41;43.00;;;41.47;;
79751;SDS011;69234;47.446;21.636;2024-03-23T01:45:12;40.33;;;38.73;;
79751;SDS011;69234;47.446;21.636;2024-03-23T01:45:43;41.93;;;39.87;;
79751;SDS011;69234;47.446;21.636;2024-03-23T01:46:13;43.10;;;41.53;;
79751;SDS011;69234;47.446;21.636;2024-03-23T01:46:44;46.03;;;45.03;;
79751;SDS011;69234;47.446;21.636;2024-03-23T01:47:15;41.97;;;40.87;;
79751;SDS011;69234;47.446;21.636;2024-03-23T01:47:46;38.20;;;37.07;;
79751;SDS011;69234;47.446;21.636;2024-03-23T01:48:20;36.60;;;35.47;;
79751;SDS011;69234;47.446;21.636;2024-03-23T01:48:51;35.47;;;34.33;;
79751;SDS011;69234;47.446;21.636;2024-03-23T01:49:22;33.87;;;32.73;;
79751;SDS011;69234;47.446;21.636;2024-03-23T01:49:53;36.80;;;35.50;;
79751;SDS011;69234;47.446;21.636;2024-03-23T01:50:24;37.47;;;36.20;;
79751;SDS011;69234;47.446;21.636;2024-03-23T01:50:55;36.83;;;35.77;;
79751;SDS011;69234;47.446;21.636;2024-03-23T01:51:27;36.73;;;35.63;;
79751;SDS011;69234;47.446;21.636;2024-03-23T01:51:58;36.53;;;35.33;;
79751;SDS011;69234;47.446;21.636;2024-03-23T01:52:30;36.90;;;35.63;;
79751;SDS011;69234;47.446;21.636;2024-03-23T01:53:04;42.37;;;40.90;;
79751;SDS011;69234;47.446;21.636;2024-03-23T01:53:36;43.47;;;41.83;;
79751;SDS011;69234;47.446;21.636;2024-03-23T01:54:07;40.93;;;39.53;;
79751;SDS011;69234;47.446;21.636;2024-03-23T01:54:39;39.67;;;38.37;;
79751;SDS011;69234;47.446;21.636;2024-03-23T01:55:11;37.40;;;36.17;;
79751;SDS011;69234;47.446;21.636;2024-03-23T01:55:42;37.47;;;36.50;;
79751;SDS011;69234;47.446;21.636;2024-03-23T01:56:14;37.47;;;36.53;;
79751;SDS011;69234;47.446;21.636;2024-03-23T01:56:45;36.73;;;35.70;;
79751;SDS011;69234;47.446;21.636;2024-03-23T01:57:16;35.10;;;34.10;;
79751;SDS011;69234;47.446;21.636;2024-03-23T01:57:48;36.40;;;35.40;;
79751;SDS011;69234;47.446;21.636;2024-03-23T01:58:18;35.83;;;34.83;;
79751;SDS011;69234;47.446;21.636;2024-03-23T01:58:49;35.13;;;34.13;;
79751;SDS011;69234;47.446;21.636;2024-03-23T01:59:20;34.67;;;33.70;;
79751;SDS011;69234;47.446;21.636;2024-03-23T01:59:51;35.60;;;34.57;;
79751;SDS011;69234;47.446;21.636;2024-03-23T02:00:29;35.70;;;34.60;;
79751;SDS011;69234;47.446;21.636;2024-03-23T02:01:00;35.03;;;34.00;;
79751;SDS011;69234;47.446;21.636;2024-03-23T02:01:31;34.37;;;33.47;;
79751;SDS011;69234;47.446;21.636;2024-03-23T02:02:06;35.00;;;34.03;;
79751;SDS011;69234;47.446;21.636;2024-03-23T02:02:37;34.97;;;34.13;;
79751;SDS011;69234;47.446;21.636;2024-03-23T02:03:24;37.97;;;37.03;;
79751;SDS011;69234;47.446;21.636;2024-03-23T02:03:58;36.90;;;35.63;;
79751;SDS011;69234;47.446;21.636;2024-03-23T02:04:29;37.67;;;36.37;;
79751;SDS011;69234;47.446;21.636;2024-03-23T02:05:00;37.47;;;36.13;;
79751;SDS011;69234;47.446;21.636;2024-03-23T02:05:31;36.77;;;35.43;;
79751;SDS011;69234;47.446;21.636;2024-03-23T02:06:02;35.10;;;34.13;;
79751;SDS011;69234;47.446;21.636;2024-03-23T02:06:35;35.10;;;34.03;;
79751;SDS011;69234;47.446;21.636;2024-03-23T02:07:06;36.63;;;35.20;;
79751;SDS011;69234;47.446;21.636;2024-03-23T02:07:38;36.30;;;34.73;;
79751;SDS011;69234;47.446;21.636;2024-03-23T02:08:11;35.70;;;34.20;;
79751;SDS011;69234;47.446;21.636;2024-03-23T02:08:42;34.50;;;33.20;;
79751;SDS011;69234;47.446;21.636;2024-03-23T02:09:14;34.17;;;33.13;;
79751;SDS011;69234;47.446;21.636;2024-03-23T02:09:45;35.23;;;34.17;;
79751;SDS011;69234;47.446;21.636;2024-03-23T02:10:16;34.83;;;33.80;;
79751;SDS011;69234;47.446;21.636;2024-03-23T02:10:50;35.43;;;34.27;;
79751;SDS011;69234;47.446;21.636;2024-03-23T02:11:21;35.13;;;34.03;;
79751;SDS011;69234;47.446;21.636;2024-03-23T02:11:53;34.87;;;33.77;;
79751;SDS011;69234;47.446;21.636;2024-03-23T02:12:25;34.70;;;33.50;;
79751;SDS011;69234;47.446;21.636;2024-03-23T02:12:56;35.00;;;33.67;;
79751;SDS011;69234;47.446;21.636;2024-03-23T02:13:26;34.10;;;33.03;;
79751;SDS011;69234;47.446;21.636;2024-03-23T02:13:57;33.67;;;32.67;;
79751;SDS011;69234;47.446;21.636;2024-03-23T02:14:28;34.20;;;33.13;;
79751;SDS011;69234;47.446;21.636;2024-03-23T02:14:59;33.07;;;32.07;;
79751;SDS011;69234;47.446;21.636;2024-03-23T02:15:30;32.97;;;32.03;;
79751;SDS011;69234;47.446;21.636;2024-03-23T02:16:01;34.10;;;32.90;;
79751;SDS011;69234;47.446;21.636;2024-03-23T02:16:32;36.33;;;34.97;;
79751;SDS011;69234;47.446;21.636;2024-03-23T02:17:03;35.70;;;34.50;;
79751;SDS011;69234;47.446;21.636;2024-03-23T02:17:35;34.43;;;33.40;;
79751;SDS011;69234;47.446;21.636;2024-03-23T02:18:07;34.57;;;33.40;;
79751;SDS011;69234;47.446;21.636;2024-03-23T02:18:39;34.73;;;33.70;;
79751;SDS011;69234;47.446;21.636;2024-03-23T02:19:10;35.93;;;34.93;;
79751;SDS011;69234;47.446;21.636;2024-03-23T02:19:41;35.57;;;34.60;;
79751;SDS011;69234;47.446;21.636;2024-03-23T02:20:12;35.17;;;34.17;;
79751;SDS011;69234;47.446;21.636;2024-03-23T02:20:42;35.10;;;33.77;;
79751;SDS011;69234;47.446;21.636;2024-03-23T02:21:13;34.70;;;33.37;;
79751;SDS011;69234;47.446;21.636;2024-03-23T02:21:45;35.50;;;34.03;;
79751;SDS011;69234;47.446;21.636;2024-03-23T02:22:17;36.77;;;35.50;;
79751;SDS011;69234;47.446;21.636;2024-03-23T02:22:50;36.90;;;35.80;;
79751;SDS011;69234;47.446;21.636;2024-03-23T02:23:23;37.57;;;36.03;;
79751;SDS011;69234;47.446;21.636;2024-03-23T02:23:54;38.40;;;36.63;;
79751;SDS011;69234;47.446;21.636;2024-03-23T02:24:25;38.73;;;37.50;;
79751;SDS011;69234;47.446;21.636;2024-03-23T02:24:56;37.13;;;35.97;;
79751;SDS011;69234;47.446;21.636;2024-03-23T02:25:27;37.70;;;36.37;;
79751;SDS011;69234;47.446;21.636;2024-03-23T02:25:58;38.27;;;36.87;;
79751;SDS011;69234;47.446;21.636;2024-03-23T02:26:29;37.03;;;36.00;;
79751;SDS011;69234;47.446;21.636;2024-03-23T02:27:02;35.60;;;34.73;;
79751;SDS011;69234;47.446;21.636;2024-03-23T02:27:33;37.17;;;36.23;;
79751;SDS011;69234;47.446;21.636;2024-03-23T02:28:09;38.23;;;37.17;;
79751;SDS011;69234;47.446;21.636;2024-03-23T02:28:40;35.53;;;34.63;;
79751;SDS011;69234;47.446;21.636;2024-03-23T02:29:11;35.80;;;34.77;;
79751;SDS011;69234;47.446;21.636;2024-03-23T02:29:42;35.50;;;34.33;;
79751;SDS011;69234;47.446;21.636;2024-03-23T02:30:13;35.97;;;34.77;;
79751;SDS011;69234;47.446;21.636;2024-03-23T02:30:43;35.13;;;33.97;;
79751;SDS011;69234;47.446;21.636;2024-03-23T02:31:14;35.00;;;33.77;;
79751;SDS011;69234;47.446;21.636;2024-03-23T02:31:45;34.93;;;33.83;;
79751;SDS011;69234;47.446;21.636;2024-03-23T02:32:16;34.10;;;33.03;;
79751;SDS011;69234;47.446;21.636;2024-03-23T02:32:47;34.17;;;33.03;;
79751;SDS011;69234;47.446;21.636;2024-03-23T02:33:18;34.97;;;33.97;;
79751;SDS011;69234;47.446;21.636;2024-03-23T02:33:49;33.53;;;32.53;;
79751;SDS011;69234;47.446;21.636;2024-03-23T02:34:20;34.60;;;33.37;;
79751;SDS011;69234;47.446;21.636;2024-03-23T02:34:51;34.23;;;33.10;;
79751;SDS011;69234;47.446;21.636;2024-03-23T02:35:22;34.47;;;33.40;;
79751;SDS011;69234;47.446;21.636;2024-03-23T02:35:55;33.20;;;32.10;;
79751;SDS011;69234;47.446;21.636;2024-03-23T02:36:28;34.27;;;33.40;;
79751;SDS011;69234;47.446;21.636;2024-03-23T02:37:00;35.20;;;34.17;;
79751;SDS011;69234;47.446;21.636;2024-03-23T02:37:32;33.93;;;33.07;;
79751;SDS011;69234;47.446;21.636;2024-03-23T02:38:03;33.87;;;33.20;;
79751;SDS011;69234;47.446;21.636;2024-03-23T02:38:34;34.27;;;33.33;;
79751;SDS011;69234;47.446;21.636;2024-03-23T02:39:05;34.83;;;33.80;;
79751;SDS011;69234;47.446;21.636;2024-03-23T02:39:37;34.70;;;33.77;;
79751;SDS011;69234;47.446;21.636;2024-03-23T02:40:08;35.87;;;34.70;;
79751;SDS011;69234;47.446;21.636;2024-03-23T02:40:39;36.13;;;34.97;;
79751;SDS011;69234;47.446;21.636;2024-03-23T02:41:10;35.43;;;34.23;;
79751;SDS011;69234;47.446;21.636;2024-03-23T02:41:41;35.63;;;34.57;;
79751;SDS011;69234;47.446;21.636;2024-03-23T02:42:12;35.93;;;34.67;;
79751;SDS011;69234;47.446;21.636;2024-03-23T02:42:43;35.90;;;34.53;;
79751;SDS011;69234;47.446;21.636;2024-03-23T02:43:14;36.17;;;34.87;;
79751;SDS011;69234;47.446;21.636;2024-03-23T02:43:45;35.23;;;34.10;;
79751;SDS011;69234;47.446;21.636;2024-03-23T02:44:15;35.33;;;34.27;;
79751;SDS011;69234;47.446;21.636;2024-03-23T02:44:46;35.67;;;34.60;;
79751;SDS011;69234;47.446;21.636;2024-03-23T02:45:18;35.10;;;34.13;;
79751;SDS011;69234;47.446;21.636;2024-03-23T02:45:49;34.13;;;33.23;;
79751;SDS011;69234;47.446;21.636;2024-03-23T02:46:19;35.20;;;34.20;;
79751;SDS011;69234;47.446;21.636;2024-03-23T02:46:50;34.90;;;33.67;;
79751;SDS011;69234;47.446;21.636;2024-03-23T02:47:21;36.17;;;34.60;;
79751;SDS011;69234;47.446;21.636;2024-03-23T02:47:52;34.97;;;33.83;;
79751;SDS011;69234;47.446;21.636;2024-03-23T02:48:23;34.63;;;33.77;;
79751;SDS011;69234;47.446;21.636;2024-03-23T02:48:54;33.83;;;33.07;;
79751;SDS011;69234;47.446;21.636;2024-03-23T02:49:26;34.87;;;33.90;;
79751;SDS011;69234;47.446;21.636;2024-03-23T02:49:57;36.30;;;34.90;;
79751;SDS011;69234;47.446;21.636;2024-03-23T02:50:29;37.70;;;35.67;;
79751;SDS011;69234;47.446;21.636;2024-03-23T02:50:59;37.53;;;35.90;;
79751;SDS011;69234;47.446;21.636;2024-03-23T02:51:30;36.03;;;34.70;;
79751;SDS011;69234;47.446;21.636;2024-03-23T02:52:01;35.57;;;34.27;;
79751;SDS011;69234;47.446;21.636;2024-03-23T02:52:32;35.00;;;33.73;;
79751;SDS011;69234;47.446;21.636;2024-03-23T02:53:03;35.50;;;34.30;;
79751;SDS011;69234;47.446;21.636;2024-03-23T02:53:34;34.60;;;33.77;;
79751;SDS011;69234;47.446;21.636;2024-03-23T02:54:05;34.90;;;34.00;;
79751;SDS011;69234;47.446;21.636;2024-03-23T02:54:36;35.07;;;33.93;;
79751;SDS011;69234;47.446;21.636;2024-03-23T02:55:07;35.47;;;34.37;;
79751;SDS011;69234;47.446;21.636;2024-03-23T02:55:38;35.90;;;34.87;;
79751;SDS011;69234;47.446;21.636;2024-03-23T02:56:09;35.87;;;34.77;;
79751;SDS011;69234;47.446;21.636;2024-03-23T02:56:45;35.07;;;33.97;;
79751;SDS011;69234;47.446;21.636;2024-03-23T02:57:18;36.03;;;34.97;;
79751;SDS011;69234;47.446;21.636;2024-03-23T02:57:49;37.00;;;36.07;;
79751;SDS011;69234;47.446;21.636;2024-03-23T02:58:20;37.13;;;36.10;;
79751;SDS011;69234;47.446;21.636;2024-03-23T02:58:51;35.97;;;34.97;;
79751;SDS011;69234;47.446;21.636;2024-03-23T02:59:21;35.33;;;34.27;;
79751;SDS011;69234;47.446;21.636;2024-03-23T02:59:52;35.43;;;34.43;;
79751;SDS011;69234;47.446;21.636;2024-03-23T03:00:24;37.20;;;36.27;;
79751;SDS011;69234;47.446;21.636;2024-03-23T03:00:55;38.27;;;37.30;;
79751;SDS011;69234;47.446;21.636;2024-03-23T03:01:25;37.00;;;35.90;;
79751;SDS011;69234;47.446;21.636;2024-03-23T03:01:56;37.13;;;35.83;;
79751;SDS011;69234;47.446;21.636;2024-03-23T03:02:27;37.70;;;36.43;;
79751;SDS011;69234;47.446;21.636;2024-03-23T03:02:58;37.97;;;36.77;;
79751;SDS011;69234;47.446;21.636;2024-03-23T03:03:29;36.47;;;35.17;;
79751;SDS011;69234;47.446;21.636;2024-03-23T03:04:00;35.87;;;34.60;;
79751;SDS011;69234;47.446;21.636;2024-03-23T03:04:31;36.07;;;34.97;;
79751;SDS011;69234;47.446;21.636;2024-03-23T03:05:02;37.00;;;35.57;;
79751;SDS011;69234;47.446;21.636;2024-03-23T03:05:35;37.30;;;35.80;;
79751;SDS011;69234;47.446;21.636;2024-03-23T03:06:06;37.43;;;36.03;;
79751;SDS011;69234;47.446;21.636;2024-03-23T03:06:37;37.57;;;36.23;;
79751;SDS011;69234;47.446;21.636;2024-03-23T03:07:08;38.23;;;37.00;;
79751;SDS011;69234;47.446;21.636;2024-03-23T03:07:38;37.60;;;36.30;;
79751;SDS011;69234;47.446;21.636;2024-03-23T03:08:11;36.43;;;35.20;;
79751;SDS011;69234;47.446;21.636;2024-03-23T03:08:42;35.63;;;34.43;;
79751;SDS011;69234;47.446;21.636;2024-03-23T03:09:12;36.17;;;34.83;;
79751;SDS011;69234;47.446;21.636;2024-03-23T03:09:43;36.73;;;35.33;;
79751;SDS011;69234;47.446;21.636;2024-03-23T03:10:14;36.70;;;35.67;;
79751;SDS011;69234;47.446;21.636;2024-03-23T03:10:45;35.00;;;34.13;;
79751;SDS011;69234;47.446;21.636;2024-03-23T03:11:16;35.07;;;34.13;;
79751;SDS011;69234;47.446;21.636;2024-03-23T03:11:47;35.57;;;34.60;;
79751;SDS011;69234;47.446;21.636;2024-03-23T03:12:18;36.77;;;35.60;;
79751;SDS011;69234;47.446;21.636;2024-03-23T03:12:49;36.47;;;35.13;;
79751;SDS011;69234;47.446;21.636;2024-03-23T03:13:20;36.37;;;35.07;;
79751;SDS011;69234;47.446;21.636;2024-03-23T03:13:51;37.03;;;35.70;;
79751;SDS011;69234;47.446;21.636;2024-03-23T03:14:22;36.73;;;35.27;;
79751;SDS011;69234;47.446;21.636;2024-03-23T03:14:53;35.87;;;34.63;;
79751;SDS011;69234;47.446;21.636;2024-03-23T03:15:24;36.57;;;35.27;;
79751;SDS011;69234;47.446;21.636;2024-03-23T03:15:55;37.13;;;35.90;;
79751;SDS011;69234;47.446;21.636;2024-03-23T03:16:26;35.63;;;34.53;;
79751;SDS011;69234;47.446;21.636;2024-03-23T03:16:57;35.07;;;34.03;;
79751;SDS011;69234;47.446;21.636;2024-03-23T03:17:28;34.00;;;32.90;;
79751;SDS011;69234;47.446;21.636;2024-03-23T03:17:59;35.17;;;34.07;;
79751;SDS011;69234;47.446;21.636;2024-03-23T03:18:30;35.37;;;34.17;;
79751;SDS011;69234;47.446;21.636;2024-03-23T03:19:01;35.63;;;34.53;;
79751;SDS011;69234;47.446;21.636;2024-03-23T03:19:32;34.87;;;33.90;;
79751;SDS011;69234;47.446;21.636;2024-03-23T03:20:03;36.17;;;34.83;;
79751;SDS011;69234;47.446;21.636;2024-03-23T03:20:38;36.50;;;34.77;;
79751;SDS011;69234;47.446;21.636;2024-03-23T03:21:10;35.50;;;34.10;;
79751;SDS011;69234;47.446;21.636;2024-03-23T03:21:43;36.07;;;34.73;;
79751;SDS011;69234;47.446;21.636;2024-03-23T03:22:14;35.40;;;34.07;;
79751;SDS011;69234;47.446;21.636;2024-03-23T03:22:46;34.90;;;33.67;;
79751;SDS011;69234;47.446;21.636;2024-03-23T03:23:17;35.50;;;34.33;;
79751;SDS011;69234;47.446;21.636;2024-03-23T03:23:48;35.80;;;34.30;;
79751;SDS011;69234;47.446;21.636;2024-03-23T03:24:20;37.00;;;35.47;;
79751;SDS011;69234;47.446;21.636;2024-03-23T03:24:52;35.70;;;34.67;;
79751;SDS011;69234;47.446;21.636;2024-03-23T03:25:22;35.40;;;34.37;;
79751;SDS011;69234;47.446;21.636;2024-03-23T03:25:53;36.07;;;34.83;;
79751;SDS011;69234;47.446;21.636;2024-03-23T03:26:24;36.27;;;34.77;;
79751;SDS011;69234;47.446;21.636;2024-03-23T03:26:55;36.77;;;35.03;;
79751;SDS011;69234;47.446;21.636;2024-03-23T03:27:27;36.10;;;34.67;;
79751;SDS011;69234;47.446;21.636;2024-03-23T03:27:58;35.77;;;34.27;;
79751;SDS011;69234;47.446;21.636;2024-03-23T03:28:30;35.80;;;34.47;;
79751;SDS011;69234;47.446;21.636;2024-03-23T03:29:02;35.17;;;34.07;;
79751;SDS011;69234;47.446;21.636;2024-03-23T03:29:33;35.60;;;34.60;;
79751;SDS011;69234;47.446;21.636;2024-03-23T03:30:05;35.27;;;34.10;;
79751;SDS011;69234;47.446;21.636;2024-03-23T03:30:38;35.70;;;34.40;;
79751;SDS011;69234;47.446;21.636;2024-03-23T03:31:09;37.10;;;35.77;;
79751;SDS011;69234;47.446;21.636;2024-03-23T03:31:40;36.87;;;35.53;;
79751;SDS011;69234;47.446;21.636;2024-03-23T03:32:12;35.33;;;34.37;;
79751;SDS011;69234;47.446;21.636;2024-03-23T03:32:42;36.00;;;34.83;;
79751;SDS011;69234;47.446;21.636;2024-03-23T03:33:13;36.07;;;34.80;;
79751;SDS011;69234;47.446;21.636;2024-03-23T03:33:44;35.97;;;34.80;;
79751;SDS011;69234;47.446;21.636;2024-03-23T03:34:15;35.87;;;34.63;;
79751;SDS011;69234;47.446;21.636;2024-03-23T03:34:46;34.67;;;33.53;;
79751;SDS011;69234;47.446;21.636;2024-03-23T03:35:17;35.07;;;34.00;;
79751;SDS011;69234;47.446;21.636;2024-03-23T03:35:48;35.93;;;34.57;;
79751;SDS011;69234;47.446;21.636;2024-03-23T03:36:19;36.43;;;35.03;;
79751;SDS011;69234;47.446;21.636;2024-03-23T03:36:51;37.17;;;35.50;;
79751;SDS011;69234;47.446;21.636;2024-03-23T03:37:22;36.77;;;35.37;;
79751;SDS011;69234;47.446;21.636;2024-03-23T03:37:52;35.90;;;34.67;;
79751;SDS011;69234;47.446;21.636;2024-03-23T03:38:23;36.63;;;35.33;;
79751;SDS011;69234;47.446;21.636;2024-03-23T03:38:54;35.80;;;34.63;;
79751;SDS011;69234;47.446;21.636;2024-03-23T03:39:25;36.03;;;34.93;;
79751;SDS011;69234;47.446;21.636;2024-03-23T03:39:56;35.50;;;34.50;;
79751;SDS011;69234;47.446;21.636;2024-03-23T03:40:27;35.07;;;34.07;;
79751;SDS011;69234;47.446;21.636;2024-03-23T03:40:58;35.93;;;34.77;;
79751;SDS011;69234;47.446;21.636;2024-03-23T03:41:29;36.27;;;35.20;;
79751;SDS011;69234;47.446;21.636;2024-03-23T03:42:02;35.33;;;34.43;;
79751;SDS011;69234;47.446;21.636;2024-03-23T03:42:36;34.97;;;33.90;;
79751;SDS011;69234;47.446;21.636;2024-03-23T03:43:08;36.33;;;35.00;;
79751;SDS011;69234;47.446;21.636;2024-03-23T03:43:39;34.97;;;33.67;;
79751;SDS011;69234;47.446;21.636;2024-03-23T03:44:12;36.43;;;35.17;;
79751;SDS011;69234;47.446;21.636;2024-03-23T03:44:43;36.40;;;35.33;;
79751;SDS011;69234;47.446;21.636;2024-03-23T03:45:14;36.73;;;35.43;;
79751;SDS011;69234;47.446;21.636;2024-03-23T03:45:51;37.33;;;36.10;;
79751;SDS011;69234;47.446;21.636;2024-03-23T03:46:23;38.33;;;36.87;;
79751;SDS011;69234;47.446;21.636;2024-03-23T03:46:54;36.37;;;35.10;;
79751;SDS011;69234;47.446;21.636;2024-03-23T03:47:25;35.87;;;34.47;;
79751;SDS011;69234;47.446;21.636;2024-03-23T03:47:56;37.17;;;35.63;;
79751;SDS011;69234;47.446;21.636;2024-03-23T03:48:27;38.33;;;36.90;;
79751;SDS011;69234;47.446;21.636;2024-03-23T03:48:59;35.53;;;34.27;;
79751;SDS011;69234;47.446;21.636;2024-03-23T03:49:30;35.23;;;34.00;;
79751;SDS011;69234;47.446;21.636;2024-03-23T03:50:00;36.37;;;35.13;;
79751;SDS011;69234;47.446;21.636;2024-03-23T03:50:31;35.80;;;34.70;;
79751;SDS011;69234;47.446;21.636;2024-03-23T03:51:03;36.37;;;35.20;;
79751;SDS011;69234;47.446;21.636;2024-03-23T03:51:34;36.50;;;35.33;;
79751;SDS011;69234;47.446;21.636;2024-03-23T03:52:05;35.50;;;34.73;;
79751;SDS011;69234;47.446;21.636;2024-03-23T03:52:36;35.93;;;35.20;;
79751;SDS011;69234;47.446;21.636;2024-03-23T03:53:07;36.60;;;35.60;;
79751;SDS011;69234;47.446;21.636;2024-03-23T03:53:38;36.03;;;34.93;;
79751;SDS011;69234;47.446;21.636;2024-03-23T03:54:09;37.07;;;36.00;;